sensor_id;sensor_type;location;lat;lon;timestamp;P1;durP1;ratioP1;P2;durP2;ratioP2
27983;SDS011;15317;50.360;8.726;2023-07-20T00:02:35;3.70;;;2.80;;
27983;SDS011;15317;50.360;8.726;2023-07-20T00:07:38;3.70;;;3.00;;
27983;SDS011;15317;50.360;8.726;2023-07-20T00:12:43;4.07;;;3.27;;
27983;SDS011;15317;50.360;8.726;2023-07-20T00:17:49;3.90;;;2.90;;
27983;SDS011;15317;50.360;8.726;2023-07-20T00:22:53;4.57;;;3.23;;
27983;SDS011;15317;50.360;8.726;2023-07-20T00:28:01;4.90;;;3.33;;
27983;SDS011;15317;50.360;8.726;2023-07-20T00:33:04;4.50;;;3.30;;
27983;SDS011;15317;50.360;8.726;2023-07-20T00:38:07;4.57;;;3.40;;
27983;SDS011;15317;50.360;8.726;2023-07-20T00:43:11;4.13;;;3.33;;
27983;SDS011;15317;50.360;8.726;2023-07-20T00:48:15;4.07;;;3.57;;
27983;SDS011;15317;50.360;8.726;2023-07-20T00:53:18;7.33;;;3.67;;
27983;SDS011;15317;50.360;8.726;2023-07-20T00:58:23;4.43;;;3.40;;
27983;SDS011;15317;50.360;8.726;2023-07-20T01:03:27;3.80;;;3.50;;
27983;SDS011;15317;50.360;8.726;2023-07-20T01:08:32;5.03;;;3.53;;
27983;SDS011;15317;50.360;8.726;2023-07-20T01:13:42;5.80;;;3.60;;
27983;SDS011;15317;50.360;8.726;2023-07-20T01:18:46;4.10;;;3.70;;
27983;SDS011;15317;50.360;8.726;2023-07-20T01:24:00;4.30;;;3.90;;
27983;SDS011;15317;50.360;8.726;2023-07-20T01:29:24;5.20;;;3.80;;
27983;SDS011;15317;50.360;8.726;2023-07-20T01:34:47;4.47;;;3.87;;
27983;SDS011;15317;50.360;8.726;2023-07-20T01:39:55;4.03;;;3.73;;
27983;SDS011;15317;50.360;8.726;2023-07-20T01:44:59;5.40;;;4.17;;
27983;SDS011;15317;50.360;8.726;2023-07-20T01:50:03;5.30;;;4.40;;
27983;SDS011;15317;50.360;8.726;2023-07-20T01:55:08;4.93;;;4.07;;
27983;SDS011;15317;50.360;8.726;2023-07-20T02:00:12;6.67;;;4.63;;
27983;SDS011;15317;50.360;8.726;2023-07-20T02:05:17;7.00;;;4.13;;
27983;SDS011;15317;50.360;8.726;2023-07-20T02:10:20;5.77;;;4.30;;
27983;SDS011;15317;50.360;8.726;2023-07-20T02:15:23;4.73;;;4.13;;
27983;SDS011;15317;50.360;8.726;2023-07-20T02:20:28;4.83;;;4.40;;
27983;SDS011;15317;50.360;8.726;2023-07-20T02:25:31;4.70;;;4.30;;
27983;SDS011;15317;50.360;8.726;2023-07-20T02:30:34;5.43;;;4.37;;
27983;SDS011;15317;50.360;8.726;2023-07-20T02:35:42;5.50;;;4.20;;
27983;SDS011;15317;50.360;8.726;2023-07-20T02:40:45;6.73;;;4.20;;
27983;SDS011;15317;50.360;8.726;2023-07-20T02:45:49;4.53;;;4.13;;
27983;SDS011;15317;50.360;8.726;2023-07-20T02:50:54;5.23;;;4.63;;
27983;SDS011;15317;50.360;8.726;2023-07-20T02:55:58;5.33;;;4.60;;
27983;SDS011;15317;50.360;8.726;2023-07-20T03:01:01;6.33;;;4.50;;
27983;SDS011;15317;50.360;8.726;2023-07-20T03:06:05;5.57;;;4.20;;
27983;SDS011;15317;50.360;8.726;2023-07-20T03:11:10;7.20;;;4.90;;
27983;SDS011;15317;50.360;8.726;2023-07-20T03:16:17;5.60;;;4.03;;
27983;SDS011;15317;50.360;8.726;2023-07-20T03:21:24;5.73;;;4.60;;
27983;SDS011;15317;50.360;8.726;2023-07-20T03:26:27;5.97;;;4.63;;
27983;SDS011;15317;50.360;8.726;2023-07-20T03:31:32;4.63;;;4.00;;
27983;SDS011;15317;50.360;8.726;2023-07-20T03:36:36;6.57;;;4.37;;
27983;SDS011;15317;50.360;8.726;2023-07-20T03:41:39;4.27;;;3.87;;
27983;SDS011;15317;50.360;8.726;2023-07-20T03:46:43;4.83;;;3.97;;
27983;SDS011;15317;50.360;8.726;2023-07-20T03:51:48;4.40;;;4.00;;
27983;SDS011;15317;50.360;8.726;2023-07-20T03:56:51;5.20;;;3.80;;
27983;SDS011;15317;50.360;8.726;2023-07-20T04:01:55;4.47;;;4.07;;
27983;SDS011;15317;50.360;8.726;2023-07-20T04:06:59;4.73;;;4.20;;
27983;SDS011;15317;50.360;8.726;2023-07-20T04:12:03;6.47;;;3.93;;
27983;SDS011;15317;50.360;8.726;2023-07-20T04:17:06;4.00;;;3.63;;
27983;SDS011;15317;50.360;8.726;2023-07-20T04:22:11;5.23;;;3.93;;
27983;SDS011;15317;50.360;8.726;2023-07-20T04:27:17;5.43;;;4.10;;
27983;SDS011;15317;50.360;8.726;2023-07-20T04:32:20;5.13;;;3.90;;
27983;SDS011;15317;50.360;8.726;2023-07-20T04:37:24;5.93;;;3.90;;
27983;SDS011;15317;50.360;8.726;2023-07-20T04:42:27;4.93;;;3.90;;
27983;SDS011;15317;50.360;8.726;2023-07-20T04:47:30;5.40;;;4.40;;
27983;SDS011;15317;50.360;8.726;2023-07-20T04:52:35;4.70;;;4.27;;
27983;SDS011;15317;50.360;8.726;2023-07-20T04:57:44;4.63;;;3.63;;
27983;SDS011;15317;50.360;8.726;2023-07-20T05:02:47;5.60;;;3.70;;
27983;SDS011;15317;50.360;8.726;2023-07-20T05:07:51;5.03;;;3.80;;
27983;SDS011;15317;50.360;8.726;2023-07-20T05:12:55;3.97;;;3.30;;
27983;SDS011;15317;50.360;8.726;2023-07-20T05:17:58;5.20;;;3.40;;
27983;SDS011;15317;50.360;8.726;2023-07-20T05:23:02;5.80;;;3.63;;
27983;SDS011;15317;50.360;8.726;2023-07-20T05:28:06;4.27;;;3.70;;
27983;SDS011;15317;50.360;8.726;2023-07-20T05:33:09;3.73;;;3.17;;
27983;SDS011;15317;50.360;8.726;2023-07-20T05:38:13;3.97;;;3.23;;
27983;SDS011;15317;50.360;8.726;2023-07-20T05:43:17;2.90;;;2.70;;
27983;SDS011;15317;50.360;8.726;2023-07-20T05:48:20;3.50;;;3.20;;
27983;SDS011;15317;50.360;8.726;2023-07-20T05:53:24;3.70;;;3.10;;
27983;SDS011;15317;50.360;8.726;2023-07-20T05:58:27;5.43;;;3.57;;
27983;SDS011;15317;50.360;8.726;2023-07-20T06:03:31;5.27;;;3.10;;
27983;SDS011;15317;50.360;8.726;2023-07-20T06:08:36;3.30;;;3.00;;
27983;SDS011;15317;50.360;8.726;2023-07-20T06:13:39;4.40;;;3.67;;
27983;SDS011;15317;50.360;8.726;2023-07-20T06:18:42;3.83;;;3.07;;
27983;SDS011;15317;50.360;8.726;2023-07-20T06:23:48;3.47;;;3.00;;
27983;SDS011;15317;50.360;8.726;2023-07-20T06:28:52;3.90;;;3.43;;
27983;SDS011;15317;50.360;8.726;2023-07-20T06:33:55;3.40;;;3.10;;
27983;SDS011;15317;50.360;8.726;2023-07-20T06:38:59;3.40;;;3.00;;
27983;SDS011;15317;50.360;8.726;2023-07-20T06:44:07;5.37;;;3.30;;
27983;SDS011;15317;50.360;8.726;2023-07-20T06:49:10;4.77;;;3.50;;
27983;SDS011;15317;50.360;8.726;2023-07-20T06:54:28;6.30;;;4.00;;
27983;SDS011;15317;50.360;8.726;2023-07-20T06:59:36;3.90;;;3.50;;
27983;SDS011;15317;50.360;8.726;2023-07-20T07:04:43;4.53;;;4.13;;
27983;SDS011;15317;50.360;8.726;2023-07-20T07:09:48;5.37;;;4.20;;
27983;SDS011;15317;50.360;8.726;2023-07-20T07:14:51;6.47;;;4.30;;
27983;SDS011;15317;50.360;8.726;2023-07-20T07:19:55;5.17;;;3.50;;
27983;SDS011;15317;50.360;8.726;2023-07-20T07:25:01;3.50;;;3.20;;
27983;SDS011;15317;50.360;8.726;2023-07-20T07:30:05;4.75;;;3.38;;
27983;SDS011;15317;50.360;8.726;2023-07-20T07:35:09;6.55;;;3.38;;
27983;SDS011;15317;50.360;8.726;2023-07-20T07:40:14;5.65;;;4.00;;
27983;SDS011;15317;50.360;8.726;2023-07-20T07:45:18;5.47;;;3.53;;
27983;SDS011;15317;50.360;8.726;2023-07-20T07:50:21;3.97;;;3.63;;
27983;SDS011;15317;50.360;8.726;2023-07-20T07:55:25;6.28;;;4.00;;
27983;SDS011;15317;50.360;8.726;2023-07-20T08:00:30;5.80;;;4.50;;
27983;SDS011;15317;50.360;8.726;2023-07-20T08:05:33;6.23;;;4.43;;
27983;SDS011;15317;50.360;8.726;2023-07-20T08:10:38;5.28;;;4.10;;
27983;SDS011;15317;50.360;8.726;2023-07-20T08:15:46;4.50;;;4.10;;
27983;SDS011;15317;50.360;8.726;2023-07-20T08:20:52;4.33;;;3.93;;
27983;SDS011;15317;50.360;8.726;2023-07-20T08:25:56;4.80;;;3.90;;
27983;SDS011;15317;50.360;8.726;2023-07-20T08:30:59;4.28;;;3.80;;
27983;SDS011;15317;50.360;8.726;2023-07-20T08:36:03;4.53;;;3.58;;
27983;SDS011;15317;50.360;8.726;2023-07-20T08:41:13;3.92;;;3.55;;
27983;SDS011;15317;50.360;8.726;2023-07-20T08:46:16;4.45;;;3.80;;
27983;SDS011;15317;50.360;8.726;2023-07-20T08:51:19;4.18;;;3.65;;
27983;SDS011;15317;50.360;8.726;2023-07-20T08:56:25;4.18;;;3.40;;
27983;SDS011;15317;50.360;8.726;2023-07-20T09:01:29;4.22;;;3.33;;
27983;SDS011;15317;50.360;8.726;2023-07-20T09:06:32;5.93;;;3.30;;
27983;SDS011;15317;50.360;8.726;2023-07-20T09:11:38;3.28;;;2.97;;
27983;SDS011;15317;50.360;8.726;2023-07-20T09:16:50;3.25;;;2.40;;
27983;SDS011;15317;50.360;8.726;2023-07-20T09:21:56;4.45;;;2.88;;
27983;SDS011;15317;50.360;8.726;2023-07-20T09:27:01;4.78;;;3.00;;
27983;SDS011;15317;50.360;8.726;2023-07-20T09:32:06;3.92;;;3.05;;
27983;SDS011;15317;50.360;8.726;2023-07-20T09:37:25;2.70;;;2.47;;
27983;SDS011;15317;50.360;8.726;2023-07-20T09:42:31;2.70;;;2.50;;
27983;SDS011;15317;50.360;8.726;2023-07-20T09:47:36;3.03;;;2.70;;
27983;SDS011;15317;50.360;8.726;2023-07-20T09:52:41;3.60;;;2.38;;
27983;SDS011;15317;50.360;8.726;2023-07-20T09:57:50;4.57;;;2.40;;
27983;SDS011;15317;50.360;8.726;2023-07-20T10:02:55;2.58;;;2.22;;
27983;SDS011;15317;50.360;8.726;2023-07-20T10:07:59;2.50;;;2.20;;
27983;SDS011;15317;50.360;8.726;2023-07-20T10:13:08;2.92;;;1.92;;
27983;SDS011;15317;50.360;8.726;2023-07-20T10:18:17;2.17;;;1.90;;
27983;SDS011;15317;50.360;8.726;2023-07-20T10:23:25;3.20;;;1.67;;
27983;SDS011;15317;50.360;8.726;2023-07-20T10:28:32;2.08;;;1.50;;
27983;SDS011;15317;50.360;8.726;2023-07-20T10:33:36;3.90;;;1.63;;
27983;SDS011;15317;50.360;8.726;2023-07-20T10:38:41;3.72;;;1.38;;
27983;SDS011;15317;50.360;8.726;2023-07-20T10:43:47;1.83;;;1.70;;
27983;SDS011;15317;50.360;8.726;2023-07-20T10:49:00;2.03;;;1.60;;
27983;SDS011;15317;50.360;8.726;2023-07-20T10:54:07;1.70;;;1.60;;
27983;SDS011;15317;50.360;8.726;2023-07-20T10:59:18;1.95;;;1.60;;
27983;SDS011;15317;50.360;8.726;2023-07-20T11:04:37;2.88;;;1.58;;
27983;SDS011;15317;50.360;8.726;2023-07-20T11:09:41;2.05;;;1.60;;
27983;SDS011;15317;50.360;8.726;2023-07-20T11:14:54;3.28;;;1.60;;
27983;SDS011;15317;50.360;8.726;2023-07-20T11:19:59;1.55;;;1.35;;
27983;SDS011;15317;50.360;8.726;2023-07-20T11:25:08;1.88;;;1.63;;
27983;SDS011;15317;50.360;8.726;2023-07-20T11:30:16;1.50;;;1.40;;
27983;SDS011;15317;50.360;8.726;2023-07-20T11:35:19;1.92;;;1.60;;
27983;SDS011;15317;50.360;8.726;2023-07-20T11:40:23;2.03;;;1.70;;
27983;SDS011;15317;50.360;8.726;2023-07-20T11:45:29;2.08;;;1.80;;
27983;SDS011;15317;50.360;8.726;2023-07-20T11:50:38;2.92;;;1.75;;
27983;SDS011;15317;50.360;8.726;2023-07-20T11:55:41;2.55;;;1.60;;
27983;SDS011;15317;50.360;8.726;2023-07-20T12:00:47;3.33;;;1.70;;
27983;SDS011;15317;50.360;8.726;2023-07-20T12:05:50;1.77;;;1.48;;
27983;SDS011;15317;50.360;8.726;2023-07-20T12:11:02;2.58;;;2.08;;
27983;SDS011;15317;50.360;8.726;2023-07-20T12:16:08;3.35;;;1.98;;
27983;SDS011;15317;50.360;8.726;2023-07-20T12:21:12;1.90;;;1.80;;
27983;SDS011;15317;50.360;8.726;2023-07-20T12:26:15;2.58;;;1.90;;
27983;SDS011;15317;50.360;8.726;2023-07-20T12:31:20;1.70;;;1.60;;
27983;SDS011;15317;50.360;8.726;2023-07-20T12:36:24;2.38;;;2.00;;
27983;SDS011;15317;50.360;8.726;2023-07-20T12:41:28;2.17;;;1.40;;
27983;SDS011;15317;50.360;8.726;2023-07-20T12:46:33;1.98;;;1.70;;
27983;SDS011;15317;50.360;8.726;2023-07-20T12:51:38;1.85;;;1.55;;
27983;SDS011;15317;50.360;8.726;2023-07-20T12:56:41;1.45;;;1.35;;
27983;SDS011;15317;50.360;8.726;2023-07-20T13:01:48;1.25;;;1.15;;
27983;SDS011;15317;50.360;8.726;2023-07-20T13:06:52;1.20;;;1.10;;
27983;SDS011;15317;50.360;8.726;2023-07-20T13:11:56;1.40;;;1.30;;
27983;SDS011;15317;50.360;8.726;2023-07-20T13:17:01;1.40;;;1.30;;
27983;SDS011;15317;50.360;8.726;2023-07-20T13:22:04;1.60;;;1.50;;
27983;SDS011;15317;50.360;8.726;2023-07-20T13:27:07;1.70;;;1.60;;
27983;SDS011;15317;50.360;8.726;2023-07-20T13:32:14;1.65;;;1.38;;
27983;SDS011;15317;50.360;8.726;2023-07-20T13:37:17;1.33;;;1.15;;
27983;SDS011;15317;50.360;8.726;2023-07-20T13:42:23;1.10;;;1.10;;
27983;SDS011;15317;50.360;8.726;2023-07-20T13:47:27;2.00;;;1.10;;
27983;SDS011;15317;50.360;8.726;2023-07-20T13:52:31;2.47;;;1.20;;
27983;SDS011;15317;50.360;8.726;2023-07-20T13:57:37;2.05;;;1.40;;
27983;SDS011;15317;50.360;8.726;2023-07-20T14:02:41;1.60;;;1.20;;
27983;SDS011;15317;50.360;8.726;2023-07-20T14:07:47;1.30;;;1.20;;
27983;SDS011;15317;50.360;8.726;2023-07-20T14:12:51;3.15;;;2.10;;
27983;SDS011;15317;50.360;8.726;2023-07-20T14:17:56;2.63;;;2.30;;
27983;SDS011;15317;50.360;8.726;2023-07-20T14:22:59;2.38;;;2.20;;
27983;SDS011;15317;50.360;8.726;2023-07-20T14:28:02;1.60;;;1.50;;
27983;SDS011;15317;50.360;8.726;2023-07-20T14:33:07;2.00;;;1.50;;
27983;SDS011;15317;50.360;8.726;2023-07-20T14:38:10;1.60;;;1.40;;
27983;SDS011;15317;50.360;8.726;2023-07-20T14:43:14;3.05;;;1.42;;
27983;SDS011;15317;50.360;8.726;2023-07-20T14:48:18;2.15;;;1.60;;
27983;SDS011;15317;50.360;8.726;2023-07-20T14:53:22;1.63;;;1.52;;
27983;SDS011;15317;50.360;8.726;2023-07-20T14:58:36;2.35;;;1.65;;
27983;SDS011;15317;50.360;8.726;2023-07-20T15:03:40;1.50;;;1.40;;
27983;SDS011;15317;50.360;8.726;2023-07-20T15:08:44;2.83;;;2.63;;
27983;SDS011;15317;50.360;8.726;2023-07-20T15:13:47;3.17;;;2.60;;
27983;SDS011;15317;50.360;8.726;2023-07-20T15:18:51;3.30;;;3.00;;
27983;SDS011;15317;50.360;8.726;2023-07-20T15:23:55;5.63;;;2.70;;
27983;SDS011;15317;50.360;8.726;2023-07-20T15:28:58;5.95;;;2.67;;
27983;SDS011;15317;50.360;8.726;2023-07-20T15:34:03;3.25;;;2.95;;
27983;SDS011;15317;50.360;8.726;2023-07-20T15:39:06;3.20;;;2.85;;
27983;SDS011;15317;50.360;8.726;2023-07-20T15:44:12;2.80;;;2.60;;
27983;SDS011;15317;50.360;8.726;2023-07-20T15:49:16;2.80;;;2.60;;
27983;SDS011;15317;50.360;8.726;2023-07-20T15:54:20;2.83;;;2.40;;
27983;SDS011;15317;50.360;8.726;2023-07-20T15:59:23;3.45;;;2.38;;
27983;SDS011;15317;50.360;8.726;2023-07-20T16:04:28;3.10;;;2.83;;
27983;SDS011;15317;50.360;8.726;2023-07-20T16:09:32;2.90;;;2.70;;
27983;SDS011;15317;50.360;8.726;2023-07-20T16:14:38;2.80;;;2.60;;
27983;SDS011;15317;50.360;8.726;2023-07-20T16:19:46;3.17;;;2.97;;
27983;SDS011;15317;50.360;8.726;2023-07-20T16:24:49;5.45;;;2.67;;
27983;SDS011;15317;50.360;8.726;2023-07-20T16:29:52;2.50;;;2.20;;
27983;SDS011;15317;50.360;8.726;2023-07-20T16:34:57;4.10;;;2.55;;
27983;SDS011;15317;50.360;8.726;2023-07-20T16:40:12;3.78;;;2.50;;
27983;SDS011;15317;50.360;8.726;2023-07-20T16:45:20;3.65;;;2.30;;
27983;SDS011;15317;50.360;8.726;2023-07-20T16:50:25;2.90;;;2.70;;
27983;SDS011;15317;50.360;8.726;2023-07-20T16:55:28;4.10;;;2.70;;
27983;SDS011;15317;50.360;8.726;2023-07-20T17:00:31;2.42;;;2.22;;
27983;SDS011;15317;50.360;8.726;2023-07-20T17:05:36;2.60;;;2.05;;
27983;SDS011;15317;50.360;8.726;2023-07-20T17:10:39;3.92;;;2.33;;
27983;SDS011;15317;50.360;8.726;2023-07-20T17:15:45;2.83;;;2.58;;
27983;SDS011;15317;50.360;8.726;2023-07-20T17:20:50;3.53;;;3.22;;
27983;SDS011;15317;50.360;8.726;2023-07-20T17:25:53;3.47;;;3.00;;
27983;SDS011;15317;50.360;8.726;2023-07-20T17:31:00;2.85;;;2.65;;
27983;SDS011;15317;50.360;8.726;2023-07-20T17:36:04;4.85;;;2.45;;
27983;SDS011;15317;50.360;8.726;2023-07-20T17:41:11;2.92;;;2.60;;
27983;SDS011;15317;50.360;8.726;2023-07-20T17:46:16;2.53;;;2.33;;
27983;SDS011;15317;50.360;8.726;2023-07-20T17:51:24;6.25;;;2.75;;
27983;SDS011;15317;50.360;8.726;2023-07-20T17:56:28;3.15;;;2.95;;
27983;SDS011;15317;50.360;8.726;2023-07-20T18:01:31;4.68;;;3.47;;
27983;SDS011;15317;50.360;8.726;2023-07-20T18:06:36;4.93;;;3.42;;
27983;SDS011;15317;50.360;8.726;2023-07-20T18:11:39;5.07;;;3.03;;
27983;SDS011;15317;50.360;8.726;2023-07-20T18:16:42;3.97;;;3.70;;
27983;SDS011;15317;50.360;8.726;2023-07-20T18:21:47;3.63;;;3.33;;
27983;SDS011;15317;50.360;8.726;2023-07-20T18:26:50;4.20;;;3.80;;
27983;SDS011;15317;50.360;8.726;2023-07-20T18:31:53;5.50;;;4.00;;
27983;SDS011;15317;50.360;8.726;2023-07-20T18:36:57;5.27;;;3.57;;
27983;SDS011;15317;50.360;8.726;2023-07-20T18:42:01;5.70;;;3.70;;
27983;SDS011;15317;50.360;8.726;2023-07-20T18:47:04;3.73;;;3.47;;
27983;SDS011;15317;50.360;8.726;2023-07-20T18:52:08;4.63;;;4.20;;
27983;SDS011;15317;50.360;8.726;2023-07-20T18:57:12;4.83;;;4.43;;
27983;SDS011;15317;50.360;8.726;2023-07-20T19:02:16;5.43;;;4.30;;
27983;SDS011;15317;50.360;8.726;2023-07-20T19:07:20;4.77;;;3.97;;
27983;SDS011;15317;50.360;8.726;2023-07-20T19:12:23;4.10;;;3.70;;
27983;SDS011;15317;50.360;8.726;2023-07-20T19:17:27;4.40;;;4.10;;
27983;SDS011;15317;50.360;8.726;2023-07-20T19:22:33;4.50;;;3.93;;
27983;SDS011;15317;50.360;8.726;2023-07-20T19:27:36;4.17;;;3.80;;
27983;SDS011;15317;50.360;8.726;2023-07-20T19:32:39;10.03;;;4.10;;
27983;SDS011;15317;50.360;8.726;2023-07-20T19:37:44;4.27;;;3.87;;
27983;SDS011;15317;50.360;8.726;2023-07-20T19:42:48;11.93;;;5.60;;
27983;SDS011;15317;50.360;8.726;2023-07-20T19:47:51;5.27;;;4.77;;
27983;SDS011;15317;50.360;8.726;2023-07-20T19:52:56;9.63;;;5.03;;
27983;SDS011;15317;50.360;8.726;2023-07-20T19:58:02;4.57;;;4.20;;
27983;SDS011;15317;50.360;8.726;2023-07-20T20:03:05;6.20;;;4.10;;
27983;SDS011;15317;50.360;8.726;2023-07-20T20:08:13;6.10;;;5.50;;
27983;SDS011;15317;50.360;8.726;2023-07-20T20:13:16;6.70;;;6.00;;
27983;SDS011;15317;50.360;8.726;2023-07-20T20:18:19;8.00;;;7.30;;
27983;SDS011;15317;50.360;8.726;2023-07-20T20:23:26;6.03;;;4.80;;
27983;SDS011;15317;50.360;8.726;2023-07-20T20:28:29;4.97;;;4.43;;
27983;SDS011;15317;50.360;8.726;2023-07-20T20:33:32;4.53;;;4.10;;
27983;SDS011;15317;50.360;8.726;2023-07-20T20:38:38;4.63;;;4.17;;
27983;SDS011;15317;50.360;8.726;2023-07-20T20:43:41;5.97;;;4.43;;
27983;SDS011;15317;50.360;8.726;2023-07-20T20:48:45;4.63;;;4.00;;
27983;SDS011;15317;50.360;8.726;2023-07-20T20:53:50;4.60;;;4.20;;
27983;SDS011;15317;50.360;8.726;2023-07-20T20:58:53;3.87;;;3.57;;
27983;SDS011;15317;50.360;8.726;2023-07-20T21:03:56;4.40;;;3.73;;
27983;SDS011;15317;50.360;8.726;2023-07-20T21:09:01;5.33;;;4.30;;
27983;SDS011;15317;50.360;8.726;2023-07-20T21:14:05;5.60;;;3.90;;
27983;SDS011;15317;50.360;8.726;2023-07-20T21:19:08;6.87;;;3.80;;
27983;SDS011;15317;50.360;8.726;2023-07-20T21:24:13;5.70;;;5.07;;
27983;SDS011;15317;50.360;8.726;2023-07-20T21:29:16;4.80;;;4.50;;
27983;SDS011;15317;50.360;8.726;2023-07-20T21:34:20;4.33;;;3.93;;
27983;SDS011;15317;50.360;8.726;2023-07-20T21:39:25;7.53;;;3.80;;
27983;SDS011;15317;50.360;8.726;2023-07-20T21:44:28;3.80;;;3.53;;
27983;SDS011;15317;50.360;8.726;2023-07-20T21:49:31;4.27;;;3.87;;
27983;SDS011;15317;50.360;8.726;2023-07-20T21:54:36;7.20;;;3.80;;
27983;SDS011;15317;50.360;8.726;2023-07-20T21:59:39;4.10;;;3.80;;
27983;SDS011;15317;50.360;8.726;2023-07-20T22:04:42;4.00;;;3.70;;
27983;SDS011;15317;50.360;8.726;2023-07-20T22:09:47;4.20;;;3.80;;
27983;SDS011;15317;50.360;8.726;2023-07-20T22:14:50;4.30;;;3.63;;
27983;SDS011;15317;50.360;8.726;2023-07-20T22:19:53;6.30;;;4.00;;
27983;SDS011;15317;50.360;8.726;2023-07-20T22:24:58;5.37;;;4.23;;
27983;SDS011;15317;50.360;8.726;2023-07-20T22:30:01;5.10;;;3.50;;
27983;SDS011;15317;50.360;8.726;2023-07-20T22:35:06;4.73;;;3.30;;
27983;SDS011;15317;50.360;8.726;2023-07-20T22:40:12;3.93;;;3.63;;
27983;SDS011;15317;50.360;8.726;2023-07-20T22:45:15;4.27;;;3.53;;
27983;SDS011;15317;50.360;8.726;2023-07-20T22:50:19;3.90;;;3.60;;
27983;SDS011;15317;50.360;8.726;2023-07-20T22:55:24;4.37;;;3.70;;
27983;SDS011;15317;50.360;8.726;2023-07-20T23:00:27;4.43;;;4.03;;
27983;SDS011;15317;50.360;8.726;2023-07-20T23:05:33;3.93;;;3.63;;
27983;SDS011;15317;50.360;8.726;2023-07-20T23:10:37;4.20;;;3.77;;
27983;SDS011;15317;50.360;8.726;2023-07-20T23:15:41;5.10;;;3.80;;
27983;SDS011;15317;50.360;8.726;2023-07-20T23:20:44;4.23;;;3.73;;
27983;SDS011;15317;50.360;8.726;2023-07-20T23:25:54;3.73;;;3.43;;
27983;SDS011;15317;50.360;8.726;2023-07-20T23:30:59;3.80;;;3.60;;
27983;SDS011;15317;50.360;8.726;2023-07-20T23:36:03;6.37;;;4.00;;
27983;SDS011;15317;50.360;8.726;2023-07-20T23:41:11;4.10;;;3.80;;
27983;SDS011;15317;50.360;8.726;2023-07-20T23:46:14;4.27;;;3.97;;
27983;SDS011;15317;50.360;8.726;2023-07-20T23:51:25;4.50;;;3.87;;
27983;SDS011;15317;50.360;8.726;2023-07-20T23:56:29;4.07;;;3.77;;
